sensor_id;sensor_type;location;lat;lon;timestamp;P1;durP1;ratioP1;P2;durP2;ratioP2
19404;SDS011;9838;49.384;8.292;2022-10-17T00:03:07;1.50;;;0.90;;
19404;SDS011;9838;49.384;8.292;2022-10-17T00:13:09;2.17;;;0.90;;
19404;SDS011;9838;49.384;8.292;2022-10-17T00:23:11;1.37;;;1.00;;
19404;SDS011;9838;49.384;8.292;2022-10-17T00:33:13;1.13;;;0.87;;
19404;SDS011;9838;49.384;8.292;2022-10-17T00:43:15;1.80;;;1.07;;
19404;SDS011;9838;49.384;8.292;2022-10-17T00:53:17;1.20;;;0.80;;
19404;SDS011;9838;49.384;8.292;2022-10-17T01:03:20;1.13;;;0.83;;
19404;SDS011;9838;49.384;8.292;2022-10-17T01:23:53;2.07;;;0.90;;
19404;SDS011;9838;49.384;8.292;2022-10-17T01:34:01;1.50;;;0.80;;
19404;SDS011;9838;49.384;8.292;2022-10-17T01:44:07;1.40;;;0.73;;
19404;SDS011;9838;49.384;8.292;2022-10-17T01:54:16;1.33;;;0.87;;
19404;SDS011;9838;49.384;8.292;2022-10-17T02:04:20;1.77;;;0.90;;
19404;SDS011;9838;49.384;8.292;2022-10-17T02:24:28;1.73;;;1.10;;
19404;SDS011;9838;49.384;8.292;2022-10-17T02:34:33;1.83;;;1.20;;
19404;SDS011;9838;49.384;8.292;2022-10-17T02:44:37;3.07;;;1.07;;
19404;SDS011;9838;49.384;8.292;2022-10-17T03:04:48;1.53;;;0.80;;
19404;SDS011;9838;49.384;8.292;2022-10-17T03:14:51;1.10;;;0.90;;
19404;SDS011;9838;49.384;8.292;2022-10-17T03:24:53;2.53;;;0.90;;
19404;SDS011;9838;49.384;8.292;2022-10-17T03:34:55;1.10;;;0.80;;
19404;SDS011;9838;49.384;8.292;2022-10-17T03:44:57;1.60;;;1.00;;
19404;SDS011;9838;49.384;8.292;2022-10-17T03:54:59;1.17;;;0.80;;
19404;SDS011;9838;49.384;8.292;2022-10-17T04:05:02;1.27;;;0.83;;
19404;SDS011;9838;49.384;8.292;2022-10-17T04:15:04;1.40;;;0.80;;
19404;SDS011;9838;49.384;8.292;2022-10-17T04:25:06;1.73;;;1.00;;
19404;SDS011;9838;49.384;8.292;2022-10-17T04:35:12;3.60;;;0.97;;
19404;SDS011;9838;49.384;8.292;2022-10-17T04:45:18;0.97;;;0.67;;
19404;SDS011;9838;49.384;8.292;2022-10-17T04:55:24;1.47;;;0.80;;
19404;SDS011;9838;49.384;8.292;2022-10-17T05:05:26;1.80;;;0.90;;
19404;SDS011;9838;49.384;8.292;2022-10-17T05:15:29;0.90;;;0.70;;
19404;SDS011;9838;49.384;8.292;2022-10-17T05:25:41;1.57;;;0.90;;
19404;SDS011;9838;49.384;8.292;2022-10-17T05:35:43;2.00;;;0.70;;
19404;SDS011;9838;49.384;8.292;2022-10-17T05:45:45;3.87;;;1.20;;
19404;SDS011;9838;49.384;8.292;2022-10-17T05:55:59;2.43;;;0.90;;
19404;SDS011;9838;49.384;8.292;2022-10-17T06:06:07;1.33;;;0.90;;
19404;SDS011;9838;49.384;8.292;2022-10-17T06:16:14;1.83;;;0.90;;
19404;SDS011;9838;49.384;8.292;2022-10-17T06:26:17;1.00;;;0.63;;
19404;SDS011;9838;49.384;8.292;2022-10-17T06:36:19;2.73;;;0.80;;
19404;SDS011;9838;49.384;8.292;2022-10-17T06:46:22;1.20;;;0.87;;
19404;SDS011;9838;49.384;8.292;2022-10-17T06:56:32;2.97;;;0.73;;
19404;SDS011;9838;49.384;8.292;2022-10-17T07:06:54;1.13;;;0.80;;
19404;SDS011;9838;49.384;8.292;2022-10-17T07:17:00;1.70;;;0.87;;
19404;SDS011;9838;49.384;8.292;2022-10-17T07:27:05;0.90;;;0.80;;
19404;SDS011;9838;49.384;8.292;2022-10-17T07:37:07;2.30;;;0.73;;
19404;SDS011;9838;49.384;8.292;2022-10-17T07:47:11;3.07;;;0.73;;
19404;SDS011;9838;49.384;8.292;2022-10-17T07:57:13;4.53;;;1.20;;
19404;SDS011;9838;49.384;8.292;2022-10-17T08:07:15;2.23;;;0.90;;
19404;SDS011;9838;49.384;8.292;2022-10-17T08:17:17;0.90;;;0.70;;
19404;SDS011;9838;49.384;8.292;2022-10-17T08:27:19;2.93;;;1.23;;
19404;SDS011;9838;49.384;8.292;2022-10-17T08:37:24;3.27;;;0.90;;
19404;SDS011;9838;49.384;8.292;2022-10-17T08:47:34;1.97;;;1.00;;
19404;SDS011;9838;49.384;8.292;2022-10-17T08:57:36;3.30;;;0.90;;
19404;SDS011;9838;49.384;8.292;2022-10-17T09:38:17;1.33;;;0.93;;
19404;SDS011;9838;49.384;8.292;2022-10-17T09:48:30;3.97;;;1.30;;
19404;SDS011;9838;49.384;8.292;2022-10-17T09:58:47;2.13;;;1.40;;
19404;SDS011;9838;49.384;8.292;2022-10-17T10:08:56;2.67;;;1.47;;
19404;SDS011;9838;49.384;8.292;2022-10-17T10:18:58;1.43;;;1.00;;
19404;SDS011;9838;49.384;8.292;2022-10-17T10:29:02;0.60;;;0.50;;
19404;SDS011;9838;49.384;8.292;2022-10-17T10:39:07;1.90;;;0.90;;
19404;SDS011;9838;49.384;8.292;2022-10-17T10:49:30;0.77;;;0.60;;
19404;SDS011;9838;49.384;8.292;2022-10-17T10:59:36;2.17;;;0.87;;
19404;SDS011;9838;49.384;8.292;2022-10-17T11:10:27;1.50;;;0.80;;
19404;SDS011;9838;49.384;8.292;2022-10-17T11:30:47;2.00;;;0.80;;
19404;SDS011;9838;49.384;8.292;2022-10-17T11:40:57;1.93;;;0.93;;
19404;SDS011;9838;49.384;8.292;2022-10-17T11:51:07;1.20;;;0.60;;
19404;SDS011;9838;49.384;8.292;2022-10-17T12:01:20;0.60;;;0.40;;
19404;SDS011;9838;49.384;8.292;2022-10-17T12:22:05;1.50;;;0.63;;
19404;SDS011;9838;49.384;8.292;2022-10-17T12:32:12;0.87;;;0.70;;
19404;SDS011;9838;49.384;8.292;2022-10-17T12:42:28;2.37;;;0.70;;
19404;SDS011;9838;49.384;8.292;2022-10-17T13:02:35;2.47;;;0.90;;
19404;SDS011;9838;49.384;8.292;2022-10-17T13:12:37;1.13;;;0.73;;
19404;SDS011;9838;49.384;8.292;2022-10-17T13:22:43;2.77;;;0.90;;
19404;SDS011;9838;49.384;8.292;2022-10-17T13:32:45;3.17;;;0.97;;
19404;SDS011;9838;49.384;8.292;2022-10-17T13:42:47;1.73;;;0.73;;
19404;SDS011;9838;49.384;8.292;2022-10-17T13:53:04;1.10;;;0.73;;
19404;SDS011;9838;49.384;8.292;2022-10-17T14:03:06;1.70;;;0.77;;
19404;SDS011;9838;49.384;8.292;2022-10-17T14:13:16;2.20;;;0.90;;
19404;SDS011;9838;49.384;8.292;2022-10-17T14:23:43;0.70;;;0.63;;
19404;SDS011;9838;49.384;8.292;2022-10-17T14:33:45;2.50;;;0.80;;
19404;SDS011;9838;49.384;8.292;2022-10-17T14:43:51;1.73;;;0.80;;
19404;SDS011;9838;49.384;8.292;2022-10-17T14:53:59;2.93;;;0.70;;
19404;SDS011;9838;49.384;8.292;2022-10-17T15:04:01;3.13;;;0.90;;
19404;SDS011;9838;49.384;8.292;2022-10-17T15:14:03;2.73;;;0.90;;
19404;SDS011;9838;49.384;8.292;2022-10-17T15:24:05;1.17;;;0.80;;
19404;SDS011;9838;49.384;8.292;2022-10-17T15:34:08;1.43;;;0.93;;
19404;SDS011;9838;49.384;8.292;2022-10-17T15:44:10;2.63;;;0.70;;
19404;SDS011;9838;49.384;8.292;2022-10-17T15:54:12;3.60;;;0.80;;
19404;SDS011;9838;49.384;8.292;2022-10-17T16:04:14;4.47;;;1.30;;
19404;SDS011;9838;49.384;8.292;2022-10-17T16:14:17;3.73;;;1.13;;
19404;SDS011;9838;49.384;8.292;2022-10-17T16:24:18;6.27;;;1.10;;
19404;SDS011;9838;49.384;8.292;2022-10-17T16:34:20;1.80;;;0.77;;
19404;SDS011;9838;49.384;8.292;2022-10-17T16:44:22;1.23;;;0.63;;
19404;SDS011;9838;49.384;8.292;2022-10-17T16:54:24;1.53;;;1.00;;
19404;SDS011;9838;49.384;8.292;2022-10-17T17:04:26;2.57;;;1.13;;
19404;SDS011;9838;49.384;8.292;2022-10-17T17:14:28;1.80;;;1.17;;
19404;SDS011;9838;49.384;8.292;2022-10-17T17:24:31;3.70;;;1.03;;
19404;SDS011;9838;49.384;8.292;2022-10-17T17:34:36;2.23;;;1.00;;
19404;SDS011;9838;49.384;8.292;2022-10-17T17:44:38;6.73;;;1.40;;
19404;SDS011;9838;49.384;8.292;2022-10-17T17:54:39;2.27;;;1.30;;
19404;SDS011;9838;49.384;8.292;2022-10-17T18:04:41;3.00;;;1.13;;
19404;SDS011;9838;49.384;8.292;2022-10-17T18:14:43;2.63;;;1.10;;
19404;SDS011;9838;49.384;8.292;2022-10-17T18:24:45;3.00;;;1.17;;
19404;SDS011;9838;49.384;8.292;2022-10-17T18:34:47;3.40;;;1.10;;
19404;SDS011;9838;49.384;8.292;2022-10-17T18:44:50;1.80;;;1.00;;
19404;SDS011;9838;49.384;8.292;2022-10-17T18:54:51;1.90;;;0.90;;
19404;SDS011;9838;49.384;8.292;2022-10-17T19:04:54;3.00;;;1.00;;
19404;SDS011;9838;49.384;8.292;2022-10-17T19:14:56;7.43;;;4.00;;
19404;SDS011;9838;49.384;8.292;2022-10-17T19:24:57;3.20;;;2.17;;
19404;SDS011;9838;49.384;8.292;2022-10-17T19:34:59;2.80;;;1.93;;
19404;SDS011;9838;49.384;8.292;2022-10-17T19:45:01;3.63;;;1.70;;
19404;SDS011;9838;49.384;8.292;2022-10-17T19:55:03;2.47;;;1.40;;
19404;SDS011;9838;49.384;8.292;2022-10-17T20:05:05;2.07;;;1.57;;
19404;SDS011;9838;49.384;8.292;2022-10-17T20:15:12;2.60;;;1.40;;
19404;SDS011;9838;49.384;8.292;2022-10-17T20:25:14;3.53;;;2.10;;
19404;SDS011;9838;49.384;8.292;2022-10-17T20:35:16;3.50;;;2.20;;
19404;SDS011;9838;49.384;8.292;2022-10-17T20:45:18;5.23;;;2.03;;
19404;SDS011;9838;49.384;8.292;2022-10-17T20:55:19;4.17;;;2.10;;
19404;SDS011;9838;49.384;8.292;2022-10-17T21:05:22;4.30;;;1.63;;
19404;SDS011;9838;49.384;8.292;2022-10-17T21:15:24;2.37;;;1.20;;
19404;SDS011;9838;49.384;8.292;2022-10-17T21:25:25;2.93;;;1.70;;
19404;SDS011;9838;49.384;8.292;2022-10-17T21:35:30;6.03;;;2.10;;
19404;SDS011;9838;49.384;8.292;2022-10-17T21:45:34;2.90;;;1.63;;
19404;SDS011;9838;49.384;8.292;2022-10-17T21:55:36;3.60;;;1.50;;
19404;SDS011;9838;49.384;8.292;2022-10-17T22:05:37;3.00;;;1.40;;
19404;SDS011;9838;49.384;8.292;2022-10-17T22:15:40;2.97;;;1.50;;
19404;SDS011;9838;49.384;8.292;2022-10-17T22:25:42;2.27;;;1.50;;
19404;SDS011;9838;49.384;8.292;2022-10-17T22:35:43;1.83;;;1.20;;
19404;SDS011;9838;49.384;8.292;2022-10-17T22:45:52;2.43;;;1.50;;
19404;SDS011;9838;49.384;8.292;2022-10-17T22:56:09;3.90;;;1.30;;
19404;SDS011;9838;49.384;8.292;2022-10-17T23:06:16;4.30;;;1.50;;
19404;SDS011;9838;49.384;8.292;2022-10-17T23:16:18;2.53;;;1.53;;
19404;SDS011;9838;49.384;8.292;2022-10-17T23:26:21;2.77;;;1.67;;
19404;SDS011;9838;49.384;8.292;2022-10-17T23:36:23;4.53;;;1.87;;
19404;SDS011;9838;49.384;8.292;2022-10-17T23:46:24;3.40;;;1.57;;
19404;SDS011;9838;49.384;8.292;2022-10-17T23:56:26;6.30;;;1.53;;
